sensor_id;sensor_type;location;lat;lon;timestamp;temperature;humidity
41985;DHT22;28319;48.116;10.818;2023-08-01T00:04:29;19.40;99.60
41985;DHT22;28319;48.116;10.818;2023-08-01T00:09:31;19.40;99.90
41985;DHT22;28319;48.116;10.818;2023-08-01T00:14:35;19.30;99.90
41985;DHT22;28319;48.116;10.818;2023-08-01T00:19:37;19.30;99.90
41985;DHT22;28319;48.116;10.818;2023-08-01T00:24:39;19.20;99.90
41985;DHT22;28319;48.116;10.818;2023-08-01T00:29:42;19.20;99.90
41985;DHT22;28319;48.116;10.818;2023-08-01T00:34:44;19.20;99.90
41985;DHT22;28319;48.116;10.818;2023-08-01T00:39:46;19.20;99.90
41985;DHT22;28319;48.116;10.818;2023-08-01T00:44:50;19.20;99.90
41985;DHT22;28319;48.116;10.818;2023-08-01T00:49:52;19.20;99.90
41985;DHT22;28319;48.116;10.818;2023-08-01T00:54:54;19.20;99.90
41985;DHT22;28319;48.116;10.818;2023-08-01T00:59:58;19.20;99.90
41985;DHT22;28319;48.116;10.818;2023-08-01T01:05:00;19.20;99.90
41985;DHT22;28319;48.116;10.818;2023-08-01T01:10:03;19.30;99.90
41985;DHT22;28319;48.116;10.818;2023-08-01T01:15:08;19.20;99.90
41985;DHT22;28319;48.116;10.818;2023-08-01T01:20:10;19.10;99.90
41985;DHT22;28319;48.116;10.818;2023-08-01T01:25:15;19.10;99.90
41985;DHT22;28319;48.116;10.818;2023-08-01T01:30:18;19.20;99.90
41985;DHT22;28319;48.116;10.818;2023-08-01T01:35:20;19.20;99.90
41985;DHT22;28319;48.116;10.818;2023-08-01T01:40:23;19.30;99.80
41985;DHT22;28319;48.116;10.818;2023-08-01T01:45:25;19.30;99.90
41985;DHT22;28319;48.116;10.818;2023-08-01T01:50:27;19.40;99.90
41985;DHT22;28319;48.116;10.818;2023-08-01T01:55:30;19.20;99.90
41985;DHT22;28319;48.116;10.818;2023-08-01T02:00:32;19.20;99.90
41985;DHT22;28319;48.116;10.818;2023-08-01T02:05:34;19.20;99.90
41985;DHT22;28319;48.116;10.818;2023-08-01T02:10:38;19.20;99.90
41985;DHT22;28319;48.116;10.818;2023-08-01T02:15:40;19.10;99.90
41985;DHT22;28319;48.116;10.818;2023-08-01T02:20:42;19.30;99.90
41985;DHT22;28319;48.116;10.818;2023-08-01T02:25:45;19.20;99.90
41985;DHT22;28319;48.116;10.818;2023-08-01T02:30:47;19.10;99.90
41985;DHT22;28319;48.116;10.818;2023-08-01T02:35:51;18.90;99.90
41985;DHT22;28319;48.116;10.818;2023-08-01T02:40:54;18.60;99.90
41985;DHT22;28319;48.116;10.818;2023-08-01T02:45:56;18.60;99.90
41985;DHT22;28319;48.116;10.818;2023-08-01T02:51:00;18.50;99.90
41985;DHT22;28319;48.116;10.818;2023-08-01T02:56:04;18.70;99.90
41985;DHT22;28319;48.116;10.818;2023-08-01T03:01:08;18.80;99.90
41985;DHT22;28319;48.116;10.818;2023-08-01T03:06:11;18.80;99.90
41985;DHT22;28319;48.116;10.818;2023-08-01T03:11:14;18.80;99.90
41985;DHT22;28319;48.116;10.818;2023-08-01T03:16:16;18.70;99.90
41985;DHT22;28319;48.116;10.818;2023-08-01T03:21:18;18.60;99.90
41985;DHT22;28319;48.116;10.818;2023-08-01T03:26:22;18.50;99.90
41985;DHT22;28319;48.116;10.818;2023-08-01T03:31:24;18.50;99.90
41985;DHT22;28319;48.116;10.818;2023-08-01T03:36:26;18.50;99.90
41985;DHT22;28319;48.116;10.818;2023-08-01T03:41:30;18.40;99.90
41985;DHT22;28319;48.116;10.818;2023-08-01T03:46:32;18.20;99.90
41985;DHT22;28319;48.116;10.818;2023-08-01T03:51:34;18.00;99.90
41985;DHT22;28319;48.116;10.818;2023-08-01T03:56:38;17.80;99.90
41985;DHT22;28319;48.116;10.818;2023-08-01T04:01:43;17.70;99.90
41985;DHT22;28319;48.116;10.818;2023-08-01T04:06:45;17.70;99.90
41985;DHT22;28319;48.116;10.818;2023-08-01T04:11:49;17.60;99.90
41985;DHT22;28319;48.116;10.818;2023-08-01T04:16:51;17.60;99.90
41985;DHT22;28319;48.116;10.818;2023-08-01T04:21:53;17.60;99.90
41985;DHT22;28319;48.116;10.818;2023-08-01T04:26:56;17.60;99.90
41985;DHT22;28319;48.116;10.818;2023-08-01T04:31:58;17.50;99.90
41985;DHT22;28319;48.116;10.818;2023-08-01T04:37:00;17.50;99.90
41985;DHT22;28319;48.116;10.818;2023-08-01T04:42:05;17.50;99.90
41985;DHT22;28319;48.116;10.818;2023-08-01T04:47:07;17.50;99.90
41985;DHT22;28319;48.116;10.818;2023-08-01T04:52:09;17.40;99.90
41985;DHT22;28319;48.116;10.818;2023-08-01T04:57:12;17.40;99.90
41985;DHT22;28319;48.116;10.818;2023-08-01T05:02:14;17.40;99.90
41985;DHT22;28319;48.116;10.818;2023-08-01T05:07:16;17.30;99.90
41985;DHT22;28319;48.116;10.818;2023-08-01T05:12:20;17.40;99.90
41985;DHT22;28319;48.116;10.818;2023-08-01T05:17:22;17.40;99.90
41985;DHT22;28319;48.116;10.818;2023-08-01T05:22:24;17.40;99.90
41985;DHT22;28319;48.116;10.818;2023-08-01T05:27:27;17.40;99.90
41985;DHT22;28319;48.116;10.818;2023-08-01T05:32:29;17.40;99.90
41985;DHT22;28319;48.116;10.818;2023-08-01T05:37:31;17.50;99.90
41985;DHT22;28319;48.116;10.818;2023-08-01T05:42:35;17.60;99.90
41985;DHT22;28319;48.116;10.818;2023-08-01T05:47:37;17.50;99.90
41985;DHT22;28319;48.116;10.818;2023-08-01T05:52:40;17.50;99.90
41985;DHT22;28319;48.116;10.818;2023-08-01T05:57:44;17.50;99.90
41985;DHT22;28319;48.116;10.818;2023-08-01T06:02:46;17.40;99.90
41985;DHT22;28319;48.116;10.818;2023-08-01T06:07:48;17.40;99.90
41985;DHT22;28319;48.116;10.818;2023-08-01T06:12:51;17.40;99.90
41985;DHT22;28319;48.116;10.818;2023-08-01T06:17:53;17.40;99.90
41985;DHT22;28319;48.116;10.818;2023-08-01T06:22:55;17.30;99.90
41985;DHT22;28319;48.116;10.818;2023-08-01T06:27:59;17.20;99.90
41985;DHT22;28319;48.116;10.818;2023-08-01T06:33:01;17.20;99.90
41985;DHT22;28319;48.116;10.818;2023-08-01T06:38:03;17.10;99.90
41985;DHT22;28319;48.116;10.818;2023-08-01T06:43:06;17.10;99.90
41985;DHT22;28319;48.116;10.818;2023-08-01T06:48:08;17.20;99.90
41985;DHT22;28319;48.116;10.818;2023-08-01T06:53:10;17.10;99.90
41985;DHT22;28319;48.116;10.818;2023-08-01T06:58:13;17.20;99.90
41985;DHT22;28319;48.116;10.818;2023-08-01T07:03:16;17.20;99.90
41985;DHT22;28319;48.116;10.818;2023-08-01T07:08:18;17.30;99.90
41985;DHT22;28319;48.116;10.818;2023-08-01T07:13:23;17.40;99.90
41985;DHT22;28319;48.116;10.818;2023-08-01T07:18:26;17.40;99.90
41985;DHT22;28319;48.116;10.818;2023-08-01T07:23:28;17.40;99.90
41985;DHT22;28319;48.116;10.818;2023-08-01T07:28:31;17.40;99.90
41985;DHT22;28319;48.116;10.818;2023-08-01T07:33:34;17.10;99.90
41985;DHT22;28319;48.116;10.818;2023-08-01T07:38:36;17.10;99.90
41985;DHT22;28319;48.116;10.818;2023-08-01T07:43:39;17.10;99.90
41985;DHT22;28319;48.116;10.818;2023-08-01T07:48:42;17.20;99.90
41985;DHT22;28319;48.116;10.818;2023-08-01T07:53:44;17.30;99.90
41985;DHT22;28319;48.116;10.818;2023-08-01T07:58:47;17.40;99.90
41985;DHT22;28319;48.116;10.818;2023-08-01T08:03:49;17.50;99.90
41985;DHT22;28319;48.116;10.818;2023-08-01T08:08:51;17.50;99.90
41985;DHT22;28319;48.116;10.818;2023-08-01T08:13:55;17.70;99.90
41985;DHT22;28319;48.116;10.818;2023-08-01T08:18:57;17.70;99.90
41985;DHT22;28319;48.116;10.818;2023-08-01T08:23:58;17.70;99.90
41985;DHT22;28319;48.116;10.818;2023-08-01T08:29:02;17.70;99.90
41985;DHT22;28319;48.116;10.818;2023-08-01T08:34:05;17.60;99.90
41985;DHT22;28319;48.116;10.818;2023-08-01T08:39:07;17.60;99.90
41985;DHT22;28319;48.116;10.818;2023-08-01T08:44:14;17.70;99.90
41985;DHT22;28319;48.116;10.818;2023-08-01T08:49:18;17.70;99.90
41985;DHT22;28319;48.116;10.818;2023-08-01T08:54:22;17.80;99.90
41985;DHT22;28319;48.116;10.818;2023-08-01T08:59:27;18.00;99.90
41985;DHT22;28319;48.116;10.818;2023-08-01T09:04:31;18.10;99.90
41985;DHT22;28319;48.116;10.818;2023-08-01T09:09:34;18.10;99.90
41985;DHT22;28319;48.116;10.818;2023-08-01T09:14:38;18.20;99.90
41985;DHT22;28319;48.116;10.818;2023-08-01T09:19:42;18.20;99.90
41985;DHT22;28319;48.116;10.818;2023-08-01T09:24:51;18.40;99.90
41985;DHT22;28319;48.116;10.818;2023-08-01T09:30:05;18.60;99.90
41985;DHT22;28319;48.116;10.818;2023-08-01T09:35:08;18.70;99.90
41985;DHT22;28319;48.116;10.818;2023-08-01T09:40:11;18.60;99.90
41985;DHT22;28319;48.116;10.818;2023-08-01T09:45:15;18.50;99.90
41985;DHT22;28319;48.116;10.818;2023-08-01T09:50:21;17.90;99.90
41985;DHT22;28319;48.116;10.818;2023-08-01T09:55:27;17.50;99.90
41985;DHT22;28319;48.116;10.818;2023-08-01T10:00:34;17.20;99.90
41985;DHT22;28319;48.116;10.818;2023-08-01T10:05:38;17.20;99.90
41985;DHT22;28319;48.116;10.818;2023-08-01T10:10:42;17.30;99.90
41985;DHT22;28319;48.116;10.818;2023-08-01T10:15:46;17.30;99.90
41985;DHT22;28319;48.116;10.818;2023-08-01T10:20:48;17.20;99.90
41985;DHT22;28319;48.116;10.818;2023-08-01T10:25:51;17.10;99.90
41985;DHT22;28319;48.116;10.818;2023-08-01T10:30:54;17.00;99.90
41985;DHT22;28319;48.116;10.818;2023-08-01T10:35:56;17.00;99.90
41985;DHT22;28319;48.116;10.818;2023-08-01T10:40:58;17.00;99.90
41985;DHT22;28319;48.116;10.818;2023-08-01T10:46:02;16.90;99.90
41985;DHT22;28319;48.116;10.818;2023-08-01T10:51:04;17.00;99.90
41985;DHT22;28319;48.116;10.818;2023-08-01T10:56:07;17.00;99.90
41985;DHT22;28319;48.116;10.818;2023-08-01T11:01:11;17.00;99.90
41985;DHT22;28319;48.116;10.818;2023-08-01T11:06:13;17.10;99.90
41985;DHT22;28319;48.116;10.818;2023-08-01T11:11:15;17.10;99.90
41985;DHT22;28319;48.116;10.818;2023-08-01T11:16:20;17.10;99.90
41985;DHT22;28319;48.116;10.818;2023-08-01T11:21:26;17.10;99.90
41985;DHT22;28319;48.116;10.818;2023-08-01T11:26:29;17.10;99.90
41985;DHT22;28319;48.116;10.818;2023-08-01T11:31:32;17.10;99.90
41985;DHT22;28319;48.116;10.818;2023-08-01T11:36:34;17.20;99.90
41985;DHT22;28319;48.116;10.818;2023-08-01T11:41:36;17.50;99.90
41985;DHT22;28319;48.116;10.818;2023-08-01T11:46:40;17.50;99.90
41985;DHT22;28319;48.116;10.818;2023-08-01T11:51:43;17.70;99.90
41985;DHT22;28319;48.116;10.818;2023-08-01T11:56:46;18.10;99.90
41985;DHT22;28319;48.116;10.818;2023-08-01T12:01:50;18.20;99.90
41985;DHT22;28319;48.116;10.818;2023-08-01T12:06:51;18.10;99.90
41985;DHT22;28319;48.116;10.818;2023-08-01T12:11:58;18.10;99.90
41985;DHT22;28319;48.116;10.818;2023-08-01T12:17:02;18.10;99.90
41985;DHT22;28319;48.116;10.818;2023-08-01T12:22:05;18.00;99.90
41985;DHT22;28319;48.116;10.818;2023-08-01T12:27:08;18.00;99.90
41985;DHT22;28319;48.116;10.818;2023-08-01T12:32:11;18.30;99.90
41985;DHT22;28319;48.116;10.818;2023-08-01T12:37:14;18.70;99.90
41985;DHT22;28319;48.116;10.818;2023-08-01T12:42:16;18.90;99.90
41985;DHT22;28319;48.116;10.818;2023-08-01T12:47:19;18.90;99.90
41985;DHT22;28319;48.116;10.818;2023-08-01T12:52:22;18.80;99.90
41985;DHT22;28319;48.116;10.818;2023-08-01T12:57:25;19.20;99.90
41985;DHT22;28319;48.116;10.818;2023-08-01T13:02:29;19.90;99.90
41985;DHT22;28319;48.116;10.818;2023-08-01T13:07:31;19.80;99.90
41985;DHT22;28319;48.116;10.818;2023-08-01T13:12:33;20.30;99.90
41985;DHT22;28319;48.116;10.818;2023-08-01T13:17:36;20.20;99.90
41985;DHT22;28319;48.116;10.818;2023-08-01T13:22:38;20.30;99.90
41985;DHT22;28319;48.116;10.818;2023-08-01T13:27:42;20.00;99.90
41985;DHT22;28319;48.116;10.818;2023-08-01T13:32:45;19.70;99.90
41985;DHT22;28319;48.116;10.818;2023-08-01T13:37:47;19.50;99.90
41985;DHT22;28319;48.116;10.818;2023-08-01T13:42:49;19.40;99.90
41985;DHT22;28319;48.116;10.818;2023-08-01T13:47:53;19.30;99.90
41985;DHT22;28319;48.116;10.818;2023-08-01T13:52:55;19.20;99.90
41985;DHT22;28319;48.116;10.818;2023-08-01T13:57:56;19.00;99.90
41985;DHT22;28319;48.116;10.818;2023-08-01T14:03:00;18.80;99.90
41985;DHT22;28319;48.116;10.818;2023-08-01T14:08:03;18.70;99.90
41985;DHT22;28319;48.116;10.818;2023-08-01T14:13:05;18.70;99.90
41985;DHT22;28319;48.116;10.818;2023-08-01T14:18:09;18.90;99.90
41985;DHT22;28319;48.116;10.818;2023-08-01T14:23:10;19.30;99.90
41985;DHT22;28319;48.116;10.818;2023-08-01T14:28:13;19.00;99.90
41985;DHT22;28319;48.116;10.818;2023-08-01T14:33:16;18.80;99.90
41985;DHT22;28319;48.116;10.818;2023-08-01T14:38:21;18.50;99.90
41985;DHT22;28319;48.116;10.818;2023-08-01T14:43:23;18.10;99.90
41985;DHT22;28319;48.116;10.818;2023-08-01T14:48:27;17.80;99.90
41985;DHT22;28319;48.116;10.818;2023-08-01T14:53:29;17.40;99.90
41985;DHT22;28319;48.116;10.818;2023-08-01T14:58:32;17.30;99.90
41985;DHT22;28319;48.116;10.818;2023-08-01T15:03:41;17.10;99.90
41985;DHT22;28319;48.116;10.818;2023-08-01T15:08:43;17.10;99.90
41985;DHT22;28319;48.116;10.818;2023-08-01T15:13:45;17.50;99.90
41985;DHT22;28319;48.116;10.818;2023-08-01T15:18:50;17.60;99.90
41985;DHT22;28319;48.116;10.818;2023-08-01T15:23:52;17.80;99.90
41985;DHT22;28319;48.116;10.818;2023-08-01T15:28:55;17.60;99.90
41985;DHT22;28319;48.116;10.818;2023-08-01T15:33:58;17.60;99.90
41985;DHT22;28319;48.116;10.818;2023-08-01T15:39:00;17.80;99.90
41985;DHT22;28319;48.116;10.818;2023-08-01T15:44:02;18.00;99.90
41985;DHT22;28319;48.116;10.818;2023-08-01T15:49:06;18.00;99.90
41985;DHT22;28319;48.116;10.818;2023-08-01T15:54:08;18.10;99.90
41985;DHT22;28319;48.116;10.818;2023-08-01T15:59:12;18.00;99.90
41985;DHT22;28319;48.116;10.818;2023-08-01T16:04:15;18.00;99.90
41985;DHT22;28319;48.116;10.818;2023-08-01T16:09:17;18.10;99.90
41985;DHT22;28319;48.116;10.818;2023-08-01T16:14:19;18.30;99.90
41985;DHT22;28319;48.116;10.818;2023-08-01T16:19:23;18.20;99.90
41985;DHT22;28319;48.116;10.818;2023-08-01T16:24:25;18.30;99.90
41985;DHT22;28319;48.116;10.818;2023-08-01T16:29:27;18.50;99.90
41985;DHT22;28319;48.116;10.818;2023-08-01T16:34:31;18.70;99.90
41985;DHT22;28319;48.116;10.818;2023-08-01T16:39:33;18.80;99.90
41985;DHT22;28319;48.116;10.818;2023-08-01T16:44:35;18.90;99.90
41985;DHT22;28319;48.116;10.818;2023-08-01T16:49:38;18.90;99.90
41985;DHT22;28319;48.116;10.818;2023-08-01T16:54:40;18.90;99.90
41985;DHT22;28319;48.116;10.818;2023-08-01T16:59:42;18.60;99.90
41985;DHT22;28319;48.116;10.818;2023-08-01T17:04:46;18.50;99.90
41985;DHT22;28319;48.116;10.818;2023-08-01T17:09:48;18.60;99.90
41985;DHT22;28319;48.116;10.818;2023-08-01T17:14:50;18.70;99.90
41985;DHT22;28319;48.116;10.818;2023-08-01T17:19:53;18.80;99.90
41985;DHT22;28319;48.116;10.818;2023-08-01T17:24:55;18.70;99.90
41985;DHT22;28319;48.116;10.818;2023-08-01T17:29:57;18.60;99.90
41985;DHT22;28319;48.116;10.818;2023-08-01T17:35:01;18.30;99.90
41985;DHT22;28319;48.116;10.818;2023-08-01T17:40:04;18.30;99.90
41985;DHT22;28319;48.116;10.818;2023-08-01T17:45:09;18.10;99.90
41985;DHT22;28319;48.116;10.818;2023-08-01T17:50:13;18.00;99.90
41985;DHT22;28319;48.116;10.818;2023-08-01T17:55:15;18.00;99.90
41985;DHT22;28319;48.116;10.818;2023-08-01T18:00:18;18.00;99.90
41985;DHT22;28319;48.116;10.818;2023-08-01T18:05:23;18.00;99.90
41985;DHT22;28319;48.116;10.818;2023-08-01T18:10:25;17.90;99.90
41985;DHT22;28319;48.116;10.818;2023-08-01T18:15:36;17.80;99.90
41985;DHT22;28319;48.116;10.818;2023-08-01T18:20:40;17.70;99.90
41985;DHT22;28319;48.116;10.818;2023-08-01T18:25:42;17.70;99.90
41985;DHT22;28319;48.116;10.818;2023-08-01T18:30:44;17.60;99.90
41985;DHT22;28319;48.116;10.818;2023-08-01T18:35:47;17.60;99.90
41985;DHT22;28319;48.116;10.818;2023-08-01T18:40:49;17.60;99.90
41985;DHT22;28319;48.116;10.818;2023-08-01T18:45:54;17.60;99.90
41985;DHT22;28319;48.116;10.818;2023-08-01T18:50:59;17.50;99.90
41985;DHT22;28319;48.116;10.818;2023-08-01T18:56:05;17.50;99.90
41985;DHT22;28319;48.116;10.818;2023-08-01T19:01:12;17.40;99.90
41985;DHT22;28319;48.116;10.818;2023-08-01T19:06:17;17.40;99.90
41985;DHT22;28319;48.116;10.818;2023-08-01T19:11:19;17.30;99.90
41985;DHT22;28319;48.116;10.818;2023-08-01T19:16:21;17.30;99.90
41985;DHT22;28319;48.116;10.818;2023-08-01T19:21:24;17.30;99.90
41985;DHT22;28319;48.116;10.818;2023-08-01T19:26:26;17.20;99.90
41985;DHT22;28319;48.116;10.818;2023-08-01T19:31:28;17.30;99.90
41985;DHT22;28319;48.116;10.818;2023-08-01T19:36:32;17.30;99.90
41985;DHT22;28319;48.116;10.818;2023-08-01T19:41:34;17.20;99.90
41985;DHT22;28319;48.116;10.818;2023-08-01T19:46:36;17.20;99.90
41985;DHT22;28319;48.116;10.818;2023-08-01T19:51:39;17.10;99.90
41985;DHT22;28319;48.116;10.818;2023-08-01T19:56:41;17.10;99.90
41985;DHT22;28319;48.116;10.818;2023-08-01T20:01:44;17.10;99.90
41985;DHT22;28319;48.116;10.818;2023-08-01T20:06:47;17.00;99.90
41985;DHT22;28319;48.116;10.818;2023-08-01T20:11:49;16.90;99.90
41985;DHT22;28319;48.116;10.818;2023-08-01T20:16:51;16.90;99.90
41985;DHT22;28319;48.116;10.818;2023-08-01T20:21:55;16.80;99.90
41985;DHT22;28319;48.116;10.818;2023-08-01T20:26:57;16.70;99.90
41985;DHT22;28319;48.116;10.818;2023-08-01T20:31:59;16.60;99.90
41985;DHT22;28319;48.116;10.818;2023-08-01T20:37:03;16.50;99.90
41985;DHT22;28319;48.116;10.818;2023-08-01T20:42:05;16.50;99.90
41985;DHT22;28319;48.116;10.818;2023-08-01T20:47:07;16.40;99.90
41985;DHT22;28319;48.116;10.818;2023-08-01T20:52:11;16.30;99.90
41985;DHT22;28319;48.116;10.818;2023-08-01T20:57:13;16.30;99.90
41985;DHT22;28319;48.116;10.818;2023-08-01T21:02:15;16.30;99.90
41985;DHT22;28319;48.116;10.818;2023-08-01T21:07:18;16.30;99.90
41985;DHT22;28319;48.116;10.818;2023-08-01T21:12:21;16.10;99.90
41985;DHT22;28319;48.116;10.818;2023-08-01T21:17:23;16.10;99.90
41985;DHT22;28319;48.116;10.818;2023-08-01T21:22:26;16.10;99.90
41985;DHT22;28319;48.116;10.818;2023-08-01T21:27:28;16.20;99.90
41985;DHT22;28319;48.116;10.818;2023-08-01T21:32:30;16.20;99.90
41985;DHT22;28319;48.116;10.818;2023-08-01T21:37:34;16.20;99.90
41985;DHT22;28319;48.116;10.818;2023-08-01T21:42:36;16.20;99.90
41985;DHT22;28319;48.116;10.818;2023-08-01T21:47:38;16.10;99.90
41985;DHT22;28319;48.116;10.818;2023-08-01T21:52:42;16.20;99.90
41985;DHT22;28319;48.116;10.818;2023-08-01T21:57:44;16.20;99.90
41985;DHT22;28319;48.116;10.818;2023-08-01T22:02:46;16.00;99.90
41985;DHT22;28319;48.116;10.818;2023-08-01T22:07:49;16.10;99.90
41985;DHT22;28319;48.116;10.818;2023-08-01T22:12:51;16.10;99.90
41985;DHT22;28319;48.116;10.818;2023-08-01T22:17:54;16.10;99.90
41985;DHT22;28319;48.116;10.818;2023-08-01T22:22:57;16.00;99.90
41985;DHT22;28319;48.116;10.818;2023-08-01T22:27:59;15.90;99.90
41985;DHT22;28319;48.116;10.818;2023-08-01T22:33:01;15.90;99.90
41985;DHT22;28319;48.116;10.818;2023-08-01T22:38:05;15.90;99.90
41985;DHT22;28319;48.116;10.818;2023-08-01T22:43:08;15.80;99.90
41985;DHT22;28319;48.116;10.818;2023-08-01T22:48:10;15.70;99.90
41985;DHT22;28319;48.116;10.818;2023-08-01T22:53:14;15.70;99.90
41985;DHT22;28319;48.116;10.818;2023-08-01T22:58:16;15.60;99.90
41985;DHT22;28319;48.116;10.818;2023-08-01T23:03:18;15.60;99.90
41985;DHT22;28319;48.116;10.818;2023-08-01T23:08:22;15.50;99.90
41985;DHT22;28319;48.116;10.818;2023-08-01T23:13:25;15.50;99.90
41985;DHT22;28319;48.116;10.818;2023-08-01T23:18:27;15.50;99.90
41985;DHT22;28319;48.116;10.818;2023-08-01T23:23:31;15.50;99.90
41985;DHT22;28319;48.116;10.818;2023-08-01T23:28:33;15.40;99.90
41985;DHT22;28319;48.116;10.818;2023-08-01T23:33:35;15.40;99.90
41985;DHT22;28319;48.116;10.818;2023-08-01T23:38:39;15.30;99.90
41985;DHT22;28319;48.116;10.818;2023-08-01T23:43:41;15.40;99.90
41985;DHT22;28319;48.116;10.818;2023-08-01T23:48:43;15.40;99.90
41985;DHT22;28319;48.116;10.818;2023-08-01T23:53:47;15.40;99.90
41985;DHT22;28319;48.116;10.818;2023-08-01T23:58:48;15.40;99.90
